Oak Grove, Kentucky
Current Conditions -  °F | °C
As of 12:58 AM on Sunday 23 Nov 2014 (Local Time) from KHOP Reporting Station
Clear Clear  
Wind Chill: 55°   Ceiling: Unl
Heat Index: 55°   Visibility: 10mi
Dew Point: 41°   Wind: 12mph
Humidity: 59%   Direction: 150°SSE
Pressure: 29.98"   Gusts: NA
Location:  36.67°N, 87.44°W
Report Text: KHOP 230658Z AUTO 15010KT 10SM CLR 13/05 A2998 RMK AO2 SLP152 T01300052
Loading
Personal Weather Stations






























Interactive Weather Map New forecast layout! Learn more

10-Day Weather Forecast

Advertisements
Track Severe Weather on mobile